createdAt,value
2022-10-31T00:04:14.033Z,0
2022-10-31T00:09:13.577Z,0
2022-10-31T00:14:13.707Z,0
2022-10-31T00:19:13.805Z,0
2022-10-31T00:24:14.095Z,0
2022-10-31T00:29:13.297Z,0
2022-10-31T00:34:13.639Z,0
2022-10-31T00:39:13.999Z,0
2022-10-31T00:44:13.358Z,0
2022-10-31T00:49:13.610Z,0
2022-10-31T00:54:14.026Z,0
2022-10-31T00:59:13.276Z,0
2022-10-31T01:04:13.977Z,0
2022-10-31T01:09:13.400Z,0
2022-10-31T01:14:13.845Z,0
2022-10-31T01:19:14.176Z,0
2022-10-31T01:24:13.554Z,0
2022-10-31T01:29:13.824Z,0
2022-10-31T01:34:14.106Z,0
2022-10-31T01:39:13.581Z,0
2022-10-31T01:44:13.933Z,0
2022-10-31T01:49:13.273Z,0
2022-10-31T01:54:13.527Z,0
2022-10-31T01:59:13.799Z,0
2022-10-31T02:04:13.290Z,0
2022-10-31T02:09:13.665Z,0
2022-10-31T02:14:14.133Z,0
2022-10-31T02:19:13.711Z,0
2022-10-31T02:24:14.112Z,0
2022-10-31T02:29:13.323Z,0
2022-10-31T02:34:13.647Z,0
2022-10-31T02:39:14.219Z,0
2022-10-31T02:44:13.359Z,0
2022-10-31T02:49:13.765Z,0
2022-10-31T02:54:14.105Z,0
2022-10-31T02:59:13.712Z,0
2022-10-31T03:04:13.598Z,0
2022-10-31T03:09:14.205Z,0
2022-10-31T03:14:14.508Z,0
2022-10-31T03:19:14.384Z,0
2022-10-31T03:24:13.683Z,0
2022-10-31T03:29:13.448Z,0
2022-10-31T03:34:14.454Z,0
2022-10-31T03:39:14.606Z,0
2022-10-31T03:44:13.878Z,0
2022-10-31T03:49:13.591Z,0
2022-10-31T03:54:13.556Z,0
2022-10-31T03:59:14.276Z,0
2022-10-31T04:04:13.911Z,0
2022-10-31T04:09:14.294Z,0
2022-10-31T04:14:13.755Z,0
2022-10-31T04:19:14.269Z,0
2022-10-31T04:24:13.622Z,0
2022-10-31T04:29:14.298Z,0
2022-10-31T04:34:13.682Z,0
2022-10-31T04:39:13.626Z,0
2022-10-31T04:44:14.395Z,0
2022-10-31T04:49:14.266Z,0
2022-10-31T04:54:13.553Z,0
2022-10-31T04:59:13.692Z,0
2022-10-31T05:04:13.964Z,0
2022-10-31T05:09:14.239Z,0
2022-10-31T05:14:13.792Z,0
2022-10-31T05:19:14.218Z,0
2022-10-31T05:24:13.715Z,0
2022-10-31T05:29:14.419Z,0
2022-10-31T05:34:14.157Z,0
2022-10-31T05:39:13.933Z,0
2022-10-31T05:44:14.066Z,0
2022-10-31T05:49:14.419Z,0
2022-10-31T05:54:16.065Z,0
2022-10-31T05:59:13.377Z,0
2022-10-31T06:04:13.797Z,0
2022-10-31T06:09:14.310Z,0
2022-10-31T06:14:13.600Z,0
2022-10-31T06:19:13.683Z,0
2022-10-31T06:24:14.309Z,0
2022-10-31T06:29:13.746Z,0
2022-10-31T06:34:14.396Z,2
2022-10-31T06:39:13.927Z,2
2022-10-31T06:44:14.008Z,7
2022-10-31T06:49:14.168Z,7
2022-10-31T06:54:14.252Z,11.4
2022-10-31T06:59:13.479Z,11.4
2022-10-31T07:04:13.667Z,13.1
2022-10-31T07:09:14.402Z,13.1
2022-10-31T07:14:13.577Z,20.1
2022-10-31T07:19:14.261Z,20.1
2022-10-31T07:24:13.870Z,26.8
2022-10-31T07:29:14.191Z,26.8
2022-10-31T07:34:13.787Z,36.7
2022-10-31T07:39:13.496Z,36.7
2022-10-31T07:44:13.764Z,34.6
2022-10-31T07:49:14.206Z,34.6
2022-10-31T07:54:14.491Z,27
2022-10-31T07:59:13.864Z,27
2022-10-31T08:04:14.446Z,45.4
2022-10-31T08:09:13.823Z,45.4
2022-10-31T08:14:14.103Z,35.3
2022-10-31T08:19:14.350Z,35.3
2022-10-31T08:24:14.502Z,36.7
2022-10-31T08:29:13.677Z,36.7
2022-10-31T08:34:14.363Z,47.2
2022-10-31T08:39:13.759Z,47.2
2022-10-31T08:44:14.011Z,63.3
2022-10-31T08:49:14.359Z,63.3
2022-10-31T08:54:14.416Z,38
2022-10-31T08:59:14.423Z,38
2022-10-31T09:04:14.369Z,72.7
2022-10-31T09:09:13.833Z,72.7
2022-10-31T09:14:13.592Z,23.1
2022-10-31T09:19:14.167Z,23.1
2022-10-31T09:24:13.667Z,23.6
2022-10-31T09:29:14.064Z,23.6
2022-10-31T09:34:13.751Z,104.2
2022-10-31T09:39:14.265Z,104.2
2022-10-31T09:44:13.528Z,101.8
2022-10-31T09:49:14.168Z,101.8
2022-10-31T09:54:14.217Z,92.9
2022-10-31T09:59:14.090Z,92.9
2022-10-31T10:04:18.332Z,85.1
2022-10-31T10:09:13.697Z,85.1
2022-10-31T10:14:13.734Z,73
2022-10-31T10:19:14.228Z,73
2022-10-31T10:24:14.355Z,86.3
2022-10-31T10:29:14.328Z,86.3
2022-10-31T10:34:13.869Z,82
2022-10-31T10:39:14.451Z,82
2022-10-31T10:44:14.375Z,83
2022-10-31T10:49:14.051Z,83
2022-10-31T10:54:14.384Z,76.6
2022-10-31T10:59:14.019Z,76.6
2022-10-31T11:04:14.546Z,67.3
2022-10-31T11:09:14.696Z,67.3
2022-10-31T11:14:14.373Z,70
2022-10-31T11:19:13.885Z,70
2022-10-31T11:24:14.666Z,70
2022-10-31T11:29:14.671Z,70
2022-10-31T11:34:14.061Z,69.1
2022-10-31T11:39:14.121Z,69.1
2022-10-31T11:44:13.802Z,71
2022-10-31T11:49:14.401Z,71
2022-10-31T11:54:14.115Z,78.5
2022-10-31T11:59:14.082Z,78.5
2022-10-31T12:04:14.287Z,112.4
2022-10-31T12:09:14.100Z,112.4
2022-10-31T12:14:14.101Z,101.3
2022-10-31T12:19:14.422Z,101.3
2022-10-31T12:24:14.028Z,87.2
2022-10-31T12:29:14.574Z,87.2
2022-10-31T12:34:14.115Z,87.9
2022-10-31T12:39:13.760Z,87.9
2022-10-31T12:44:14.231Z,86.6
2022-10-31T12:49:14.391Z,86.6
2022-10-31T12:54:14.638Z,114.5
2022-10-31T12:59:14.687Z,114.5
2022-10-31T13:04:14.883Z,111.7
2022-10-31T13:09:14.355Z,111.7
2022-10-31T13:14:14.970Z,99.1
2022-10-31T13:19:14.103Z,99.1
2022-10-31T13:24:14.942Z,86.4
2022-10-31T13:29:14.304Z,86.4
2022-10-31T13:34:14.012Z,80.7
2022-10-31T13:39:14.446Z,80.7
2022-10-31T13:44:14.368Z,70.6
2022-10-31T13:49:13.986Z,70.6
2022-10-31T13:54:14.827Z,74.3
2022-10-31T13:59:14.601Z,74.3
2022-10-31T14:04:16.903Z,93.2
2022-10-31T14:09:14.153Z,93.2
2022-10-31T14:14:14.231Z,91.3
2022-10-31T14:19:13.822Z,91.3
2022-10-31T14:24:14.633Z,76.5
2022-10-31T14:29:14.240Z,76.5
2022-10-31T14:34:14.883Z,59.4
2022-10-31T14:39:13.804Z,59.4
2022-10-31T14:44:13.921Z,31.3
2022-10-31T14:49:14.665Z,31.3
2022-10-31T14:54:14.059Z,25.3
2022-10-31T14:59:14.073Z,25.3
2022-10-31T15:04:24.712Z,19.8
2022-10-31T15:09:14.384Z,19.8
2022-10-31T15:14:14.771Z,12
2022-10-31T15:19:14.278Z,12
2022-10-31T15:24:14.092Z,10.2
2022-10-31T15:29:14.351Z,10.2
2022-10-31T15:39:14.414Z,5
2022-10-31T15:44:14.896Z,0
2022-10-31T15:49:14.539Z,0
2022-10-31T15:54:14.730Z,0
2022-10-31T15:59:14.720Z,0
2022-10-31T16:04:13.786Z,0
2022-10-31T16:09:14.629Z,0
2022-10-31T16:14:14.369Z,0
2022-10-31T16:19:14.593Z,0
2022-10-31T16:24:14.214Z,0
2022-10-31T16:29:14.559Z,0
2022-10-31T16:34:14.678Z,0
2022-10-31T16:39:14.752Z,0
2022-10-31T16:44:14.480Z,0
2022-10-31T16:49:14.364Z,0
2022-10-31T16:54:14.026Z,0
2022-10-31T16:59:16.299Z,0
2022-10-31T17:04:14.488Z,0
2022-10-31T17:09:14.856Z,0
2022-10-31T17:14:14.334Z,0
2022-10-31T17:19:14.201Z,0
2022-10-31T17:24:14.801Z,0
2022-10-31T17:29:14.554Z,0
2022-10-31T17:34:14.808Z,0
2022-10-31T17:39:15.198Z,0
2022-10-31T17:44:15.446Z,0
2022-10-31T17:49:14.022Z,0
2022-10-31T17:54:14.522Z,0
2022-10-31T17:59:14.614Z,0
2022-10-31T18:04:15.007Z,0
2022-10-31T18:09:14.333Z,0
2022-10-31T18:14:14.044Z,0
2022-10-31T18:19:20.620Z,0
2022-10-31T18:24:14.591Z,0
2022-10-31T18:29:14.568Z,0
2022-10-31T18:34:14.392Z,0
2022-10-31T18:39:14.988Z,0
2022-10-31T18:44:14.686Z,0
2022-10-31T18:49:14.562Z,0
2022-10-31T18:54:14.848Z,0
2022-10-31T18:59:13.997Z,0
2022-10-31T19:04:15.219Z,0
2022-10-31T19:09:14.918Z,0
2022-10-31T19:14:15.015Z,0
2022-10-31T19:19:15.008Z,0
2022-10-31T19:24:14.441Z,0
2022-10-31T19:29:14.220Z,0
2022-10-31T19:34:14.686Z,0
2022-10-31T19:39:14.392Z,0
2022-10-31T19:44:16.087Z,0
2022-10-31T19:49:15.870Z,0
2022-10-31T19:54:14.103Z,0
2022-10-31T19:59:14.544Z,0
2022-10-31T20:04:14.445Z,0
2022-10-31T20:09:14.675Z,0
2022-10-31T20:14:14.180Z,0
2022-10-31T20:19:19.837Z,0
2022-10-31T20:24:14.602Z,0
2022-10-31T20:29:14.481Z,0
2022-10-31T20:34:17.064Z,0
2022-10-31T20:39:15.068Z,0
2022-10-31T20:44:14.616Z,0
2022-10-31T20:49:14.844Z,0
2022-10-31T20:54:14.636Z,0
2022-10-31T20:59:14.872Z,0
2022-10-31T21:04:14.353Z,0
2022-10-31T21:09:14.088Z,0
2022-10-31T21:14:14.903Z,0
2022-10-31T21:19:14.957Z,0
2022-10-31T21:24:14.491Z,0
2022-10-31T21:29:14.658Z,0
2022-10-31T21:34:14.598Z,0
2022-10-31T21:39:14.148Z,0
2022-10-31T21:44:15.064Z,0
2022-10-31T21:49:14.346Z,0
2022-10-31T21:54:14.828Z,0
2022-10-31T21:59:14.473Z,0
2022-10-31T22:04:14.614Z,0
2022-10-31T22:09:14.287Z,0
2022-10-31T22:14:14.184Z,0
2022-10-31T22:19:14.738Z,0
2022-10-31T22:24:14.132Z,0
2022-10-31T22:29:14.298Z,0
2022-10-31T22:34:14.911Z,0
2022-10-31T22:39:14.123Z,0
2022-10-31T22:44:15.567Z,0
2022-10-31T22:49:14.421Z,0
2022-10-31T22:54:14.941Z,0
2022-10-31T22:59:15.042Z,0
2022-10-31T23:04:14.452Z,0
2022-10-31T23:09:14.635Z,0
2022-10-31T23:14:14.603Z,0
2022-10-31T23:19:14.801Z,0
2022-10-31T23:24:15.532Z,0
2022-10-31T23:29:14.193Z,0
2022-10-31T23:34:14.680Z,0
2022-10-31T23:39:14.090Z,0
2022-10-31T23:44:14.111Z,0
2022-10-31T23:49:15.005Z,0
2022-10-31T23:54:14.619Z,0
2022-10-31T23:59:14.828Z,0
